Time;durP1;ratioP1;P1;durP2;ratioP2;P2;SDS_P1;SDS_P2;PMS_P1;PMS_P2;Temp;Humidity;BMP_temperature;BMP_pressure;BME280_temperature;BME280_humidity;BME280_pressure;Samples;Min_cycle;Max_cycle;Signal;HPM_P1;HPM_P2
2021/05/19 00:00:50;;;;;;;10.23;8.45;;;;;;;6.89;100.00;101477.47;3537266;40;20038;-61
2021/05/19 00:03:17;;;;;;;13.35;7.78;;;;;;;6.92;100.00;101469.25;3538928;40;20053;-61
2021/05/19 00:05:43;;;;;;;15.55;8.75;;;;;;;7.04;100.00;101472.06;3536869;40;21579;-61
2021/05/19 00:08:10;;;;;;;11.20;8.88;;;;;;;7.10;100.00;101463.69;3540620;40;20094;-61
2021/05/19 00:10:37;;;;;;;14.82;8.75;;;;;;;7.14;100.00;101467.84;3537565;40;20054;-61
2021/05/19 00:13:04;;;;;;;15.95;9.05;;;;;;;7.16;100.00;101463.28;3537959;40;20069;-61
2021/05/19 00:15:30;;;;;;;13.48;9.38;;;;;;;7.13;100.00;101458.97;3538036;40;20116;-61
2021/05/19 00:18:01;;;;;;;13.85;9.15;;;;;;;7.15;100.00;101464.22;3538756;40;20092;-60
2021/05/19 00:20:28;;;;;;;14.75;8.80;;;;;;;7.19;100.00;101460.41;3547911;40;21611;-62
2021/05/19 00:22:54;;;;;;;14.00;8.88;;;;;;;7.21;100.00;101469.19;3547118;40;20065;-61
2021/05/19 00:25:20;;;;;;;12.57;9.65;;;;;;;7.22;100.00;101462.88;3548671;40;20486;-61
2021/05/19 00:27:46;;;;;;;20.70;10.38;;;;;;;7.22;100.00;101464.69;3547305;40;20053;-61
2021/05/19 00:30:17;;;;;;;15.13;9.95;;;;;;;7.26;100.00;101461.72;3547263;40;20122;-62
2021/05/19 00:32:43;;;;;;;15.82;10.27;;;;;;;7.25;100.00;101459.16;3547990;40;20292;-61
2021/05/19 00:35:09;;;;;;;17.80;10.10;;;;;;;7.25;100.00;101461.81;3535938;40;20065;-61
2021/05/19 00:37:36;;;;;;;16.65;10.35;;;;;;;7.24;100.00;101463.63;3546383;40;22197;-61
2021/05/19 00:40:03;;;;;;;21.45;10.65;;;;;;;7.21;100.00;101463.81;3549641;40;20494;-61
2021/05/19 00:42:29;;;;;;;15.75;10.77;;;;;;;7.25;100.00;101454.63;3547934;40;20166;-62
2021/05/19 00:44:55;;;;;;;17.80;10.82;;;;;;;7.27;100.00;101457.22;3548153;40;20049;-63
2021/05/19 00:47:32;;;;;;;16.48;10.65;;;;;;;7.22;100.00;101465.56;3549159;40;20727;-62
2021/05/19 00:49:58;;;;;;;19.38;10.95;;;;;;;7.19;100.00;101461.25;3548328;40;20061;-61
2021/05/19 00:52:24;;;;;;;17.15;10.80;;;;;;;7.22;100.00;101459.34;3550068;40;20085;-61
2021/05/19 00:54:51;;;;;;;19.08;11.20;;;;;;;7.19;100.00;101452.38;3550774;40;20095;-61
2021/05/19 00:57:17;;;;;;;19.77;10.55;;;;;;;7.16;100.00;101455.25;3546591;40;20057;-61
2021/05/19 00:59:44;;;;;;;14.93;9.57;;;;;;;7.18;100.00;101448.84;3547796;40;20865;-61
2021/05/19 01:02:11;;;;;;;13.70;9.63;;;;;;;7.18;100.00;101440.81;3547773;40;20058;-62
2021/05/19 01:04:37;;;;;;;21.50;11.50;;;;;;;7.06;100.00;101443.41;3547655;40;20092;-61
2021/05/19 01:07:08;;;;;;;23.58;11.90;;;;;;;7.11;100.00;101441.28;3548669;40;20058;-61
2021/05/19 01:09:36;;;;;;;25.30;11.80;;;;;;;7.07;100.00;101445.16;3550102;40;20050;-61
2021/05/19 01:12:04;;;;;;;23.95;11.43;;;;;;;7.13;100.00;101450.09;3550260;40;20358;-61
2021/05/19 01:14:31;;;;;;;20.00;12.02;;;;;;;7.18;100.00;101447.97;3547561;40;20099;-61
2021/05/19 01:16:57;;;;;;;22.20;11.43;;;;;;;7.13;100.00;101447.41;3549152;40;20321;-62
2021/05/19 01:19:26;;;;;;;17.27;11.15;;;;;;;7.19;100.00;101439.81;3547410;40;20138;-62
2021/05/19 01:21:55;;;;;;;19.00;11.35;;;;;;;7.11;100.00;101442.16;3548772;40;20038;-61
2021/05/19 01:24:22;;;;;;;20.40;11.67;;;;;;;7.06;100.00;101440.75;3549651;40;20057;-61
2021/05/19 01:26:48;;;;;;;15.52;11.27;;;;;;;7.04;100.00;101434.59;3551842;40;20044;-61
2021/05/19 01:29:14;;;;;;;16.08;11.10;;;;;;;7.08;100.00;101430.78;3551834;40;20084;-61
2021/05/19 01:31:40;;;;;;;14.57;10.88;;;;;;;7.12;100.00;101429.63;3547103;40;20139;-62
2021/05/19 01:34:07;;;;;;;15.43;11.32;;;;;;;7.10;100.00;101434.25;3549291;40;20052;-61
2021/05/19 01:36:33;;;;;;;16.48;10.77;;;;;;;7.16;100.00;101434.69;3550139;40;20960;-61
2021/05/19 01:38:59;;;;;;;23.42;12.25;;;;;;;7.10;100.00;101424.38;3549269;40;20041;-61
2021/05/19 01:41:26;;;;;;;19.15;12.13;;;;;;;7.21;100.00;101433.53;3557416;40;20046;-61
2021/05/19 01:43:52;;;;;;;21.95;12.57;;;;;;;7.23;100.00;101424.44;3558963;40;20046;-61
2021/05/19 01:46:18;;;;;;;16.58;11.93;;;;;;;7.22;100.00;101432.56;3558708;40;20040;-61
2021/05/19 01:48:51;;;;;;;21.10;11.98;;;;;;;7.26;100.00;101426.91;3559053;40;20131;-62
2021/05/19 01:51:20;;;;;;;17.67;12.05;;;;;;;7.33;100.00;101425.56;3559064;40;20053;-61
2021/05/19 01:53:47;;;;;;;18.17;11.65;;;;;;;7.40;100.00;101426.00;3549057;40;20324;-61
2021/05/19 01:56:13;;;;;;;19.70;12.05;;;;;;;7.44;100.00;101421.31;3546638;40;20052;-61
2021/05/19 01:58:40;;;;;;;17.92;10.63;;;;;;;7.51;100.00;101430.66;3546698;40;20061;-62
2021/05/19 02:01:06;;;;;;;18.05;11.05;;;;;;;7.54;100.00;101435.81;3546459;40;20958;-62
2021/05/19 02:03:32;;;;;;;16.58;10.30;;;;;;;7.54;100.00;101433.13;3548947;40;20052;-62
2021/05/19 02:05:58;;;;;;;17.05;11.73;;;;;;;7.52;100.00;101427.88;3547574;40;20053;-61
2021/05/19 02:08:24;;;;;;;20.02;13.40;;;;;;;7.67;100.00;101434.03;3547879;40;20061;-62
2021/05/19 02:10:50;;;;;;;14.85;11.70;;;;;;;7.71;100.00;101435.53;3549639;40;20056;-61
2021/05/19 02:13:18;;;;;;;21.85;13.40;;;;;;;7.69;100.00;101424.03;3548282;40;20472;-61
2021/05/19 02:19:15;;;;;;;20.52;13.32;;;;;;;7.89;100.00;101427.19;3535409;40;20194;-62
2021/05/19 02:21:42;;;;;;;21.42;14.18;;;;;;;7.92;100.00;101426.13;3536471;40;20324;-61
2021/05/19 02:24:09;;;;;;;20.45;13.65;;;;;;;7.96;100.00;101425.81;3535427;40;20069;-61
2021/05/19 02:26:35;;;;;;;21.08;14.32;;;;;;;8.02;100.00;101422.72;3537818;40;20052;-61
2021/05/19 02:29:01;;;;;;;21.30;13.98;;;;;;;8.03;100.00;101423.56;3536259;40;20034;-61
2021/05/19 02:31:27;;;;;;;20.42;14.00;;;;;;;8.03;100.00;101424.41;3536959;40;21408;-62
2021/05/19 02:33:53;;;;;;;21.70;14.27;;;;;;;8.07;100.00;101425.09;3537698;40;20445;-62
2021/05/19 02:36:19;;;;;;;21.60;15.90;;;;;;;8.04;100.00;101425.31;3540717;40;20053;-61
2021/05/19 02:38:45;;;;;;;24.85;14.80;;;;;;;8.07;100.00;101423.25;3536688;40;20131;-62
2021/05/19 02:41:11;;;;;;;22.92;15.68;;;;;;;8.05;100.00;101427.00;3537170;40;20150;-62
2021/05/19 02:43:38;;;;;;;22.60;16.23;;;;;;;7.94;100.00;101419.69;3536806;40;20053;-62
2021/05/19 02:46:03;;;;;;;23.40;14.80;;;;;;;7.83;100.00;101422.25;3539574;40;20053;-61
2021/05/19 02:48:30;;;;;;;24.98;16.95;;;;;;;7.83;100.00;101423.13;3536905;40;20638;-62
2021/05/19 02:50:56;;;;;;;23.92;16.10;;;;;;;7.82;100.00;101415.19;3537452;40;20156;-61
2021/05/19 02:53:23;;;;;;;24.23;16.48;;;;;;;7.81;100.00;101421.50;3536768;40;20116;-61
2021/05/19 02:55:49;;;;;;;27.65;16.02;;;;;;;7.79;100.00;101420.72;3541059;40;20315;-62
2021/05/19 02:58:15;;;;;;;26.58;17.73;;;;;;;7.78;100.00;101421.72;3535988;40;20060;-62
2021/05/19 03:00:41;;;;;;;26.25;18.55;;;;;;;7.74;100.00;101423.72;3537570;40;20275;-61
2021/05/19 03:03:07;;;;;;;29.83;18.60;;;;;;;7.68;100.00;101419.63;3537239;40;20118;-61
2021/05/19 03:05:33;;;;;;;29.85;17.60;;;;;;;7.72;100.00;101429.19;3537186;40;20083;-62
2021/05/19 03:07:59;;;;;;;30.55;16.85;;;;;;;7.67;100.00;101425.97;3537148;40;20056;-61
2021/05/19 03:10:27;;;;;;;28.95;18.33;;;;;;;7.67;100.00;101428.66;3539070;40;20104;-62
2021/05/19 03:12:53;;;;;;;32.00;19.50;;;;;;;7.68;100.00;101421.47;3538525;40;20042;-62
2021/05/19 03:15:20;;;;;;;30.40;18.98;;;;;;;7.68;100.00;101421.47;3536837;40;20085;-62
2021/05/19 03:17:47;;;;;;;28.77;19.20;;;;;;;7.67;100.00;101425.97;3538257;40;20377;-61
2021/05/19 03:20:14;;;;;;;31.77;20.00;;;;;;;7.72;100.00;101429.19;3538338;40;20065;-61
2021/05/19 03:22:40;;;;;;;29.35;20.27;;;;;;;7.78;100.00;101430.59;3539530;40;20045;-61
2021/05/19 03:25:08;;;;;;;28.55;18.92;;;;;;;7.80;100.00;101431.38;3539364;40;20372;-62
2021/05/19 03:27:35;;;;;;;30.63;18.92;;;;;;;7.77;100.00;101425.34;3536795;40;20053;-61
2021/05/19 03:30:01;;;;;;;29.73;19.67;;;;;;;7.77;100.00;101430.72;3539043;40;20069;-61
2021/05/19 03:32:27;;;;;;;28.52;19.67;;;;;;;7.80;100.00;101425.13;3539009;40;20046;-61
2021/05/19 03:34:53;;;;;;;35.60;20.63;;;;;;;7.72;100.00;101426.50;3539672;40;20065;-61
2021/05/19 03:37:19;;;;;;;29.77;19.60;;;;;;;7.70;100.00;101423.09;3550468;40;20119;-62
2021/05/19 03:39:45;;;;;;;31.25;20.85;;;;;;;7.70;100.00;101432.97;3553371;40;20050;-61
2021/05/19 03:42:11;;;;;;;31.50;20.33;;;;;;;7.67;100.00;101427.78;3553198;40;20105;-62
2021/05/19 03:44:38;;;;;;;33.17;20.98;;;;;;;7.68;100.00;101425.00;3552293;40;20087;-61
2021/05/19 03:47:04;;;;;;;34.47;22.02;;;;;;;7.71;100.00;101435.53;3540956;40;20053;-61
2021/05/19 03:49:34;;;;;;;36.78;21.40;;;;;;;7.74;100.00;101436.28;3537012;40;20068;-61
2021/05/19 03:52:00;;;;;;;37.13;22.70;;;;;;;7.75;100.00;101430.81;3537566;40;20524;-61
2021/05/19 03:54:26;;;;;;;37.85;24.83;;;;;;;7.79;100.00;101426.09;3536016;40;20296;-62
2021/05/19 03:56:52;;;;;;;38.75;24.48;;;;;;;7.80;100.00;101431.38;3540574;40;20525;-61
2021/05/19 03:59:18;;;;;;;33.72;22.88;;;;;;;7.85;100.00;101433.75;3539729;40;20061;-61
2021/05/19 04:01:45;;;;;;;35.50;22.65;;;;;;;7.92;100.00;101435.03;3536690;40;20452;-62
2021/05/19 04:04:11;;;;;;;36.90;21.75;;;;;;;7.90;100.00;101423.56;3536364;40;20058;-61
2021/05/19 04:06:37;;;;;;;36.78;22.38;;;;;;;7.90;100.00;101423.56;3537155;40;20052;-61
2021/05/19 04:09:06;;;;;;;37.13;23.75;;;;;;;7.95;100.00;101432.16;3535828;40;20042;-62
2021/05/19 04:11:32;;;;;;;36.67;23.75;;;;;;;7.98;100.00;101431.94;3537113;40;20041;-62
2021/05/19 04:13:58;;;;;;;32.28;21.92;;;;;;;8.01;100.00;101428.16;3538109;40;20093;-61
2021/05/19 04:16:24;;;;;;;37.55;24.17;;;;;;;8.02;100.00;101436.13;3535721;40;20060;-62
2021/05/19 04:18:50;;;;;;;32.05;23.23;;;;;;;8.04;100.00;101430.66;3537745;40;20399;-61
2021/05/19 04:21:16;;;;;;;36.97;24.92;;;;;;;8.07;100.00;101430.44;3537032;40;20268;-62
2021/05/19 04:23:42;;;;;;;37.03;23.75;;;;;;;8.07;100.00;101425.09;3535899;40;20057;-62
2021/05/19 04:26:08;;;;;;;40.03;25.88;;;;;;;8.08;100.00;101429.47;3537196;40;20423;-62
2021/05/19 04:28:35;;;;;;;35.00;24.38;;;;;;;8.13;100.00;101434.53;3536275;40;20077;-62
2021/05/19 04:31:01;;;;;;;37.63;25.70;;;;;;;8.13;100.00;101434.53;3537183;40;20140;-62
2021/05/19 04:33:27;;;;;;;40.10;24.58;;;;;;;8.17;100.00;101442.25;3532236;40;20061;-61
2021/05/19 04:35:54;;;;;;;43.17;25.65;;;;;;;8.22;100.00;101444.63;3538692;40;20425;-61
2021/05/19 04:38:20;;;;;;;36.72;23.65;;;;;;;8.23;100.00;101443.66;3536754;40;20749;-62
2021/05/19 04:40:46;;;;;;;43.10;28.10;;;;;;;8.27;100.00;101434.41;3537091;40;20117;-61
2021/05/19 04:43:13;;;;;;;36.58;26.48;;;;;;;8.27;100.00;101445.13;3536722;40;20041;-61
2021/05/19 04:45:39;;;;;;;38.65;26.35;;;;;;;8.32;100.00;101442.13;3536663;40;20147;-63
2021/05/19 04:48:06;;;;;;;40.85;26.58;;;;;;;8.38;100.00;101447.09;3535028;40;20069;-62
2021/05/19 04:50:34;;;;;;;38.50;25.80;;;;;;;8.46;100.00;101443.91;3537957;40;20046;-61
2021/05/19 04:53:01;;;;;;;39.20;25.80;;;;;;;8.55;100.00;101448.59;3536564;40;20328;-62
2021/05/19 04:55:27;;;;;;;37.72;25.88;;;;;;;8.57;100.00;101458.28;3535562;40;20126;-62
2021/05/19 04:57:53;;;;;;;39.53;26.27;;;;;;;8.51;100.00;101444.41;3535055;40;20102;-61
2021/05/19 05:00:20;;;;;;;42.60;27.20;;;;;;;8.56;100.00;101453.84;3540527;40;21409;-61
2021/05/19 05:02:46;;;;;;;45.17;27.73;;;;;;;8.56;100.00;101455.69;3550420;40;20038;-62
2021/05/19 05:05:12;;;;;;;40.95;27.83;;;;;;;8.65;100.00;101455.03;3550794;40;20069;-62
2021/05/19 05:07:38;;;;;;;41.33;28.65;;;;;;;8.65;100.00;101460.41;3552724;40;20050;-61
2021/05/19 05:10:07;;;;;;;38.53;28.35;;;;;;;8.75;100.00;101465.97;3550203;40;20587;-62
2021/05/19 05:12:33;;;;;;;45.20;29.50;;;;;;;8.78;100.00;101457.72;3547991;40;20417;-62
2021/05/19 05:14:59;;;;;;;44.53;28.02;;;;;;;8.77;100.00;101462.22;3534155;40;20068;-62
2021/05/19 05:17:25;;;;;;;38.95;28.02;;;;;;;8.85;100.00;101467.03;3534402;40;21678;-60
2021/05/19 05:19:51;;;;;;;44.90;29.25;;;;;;;8.88;100.00;101460.59;3535173;40;20034;-61
2021/05/19 05:22:17;;;;;;;38.33;28.02;;;;;;;8.91;100.00;101452.31;3535478;40;20143;-61
2021/05/19 05:24:43;;;;;;;42.90;26.90;;;;;;;8.96;100.00;101454.66;3540814;40;20054;-61
2021/05/19 05:27:10;;;;;;;36.28;25.45;;;;;;;9.07;100.00;101454.75;3537476;40;20053;-61
2021/05/19 05:29:36;;;;;;;42.65;28.35;;;;;;;9.15;100.00;101455.03;3537400;40;20041;-61
2021/05/19 05:32:03;;;;;;;43.13;27.23;;;;;;;9.15;100.00;101451.50;3535705;40;20409;-61
2021/05/19 05:34:29;;;;;;;41.95;27.92;;;;;;;9.25;100.00;101452.53;3536462;40;20050;-61
2021/05/19 05:36:55;;;;;;;42.75;27.27;;;;;;;9.31;100.00;101451.25;3535739;40;20308;-61
2021/05/19 05:39:21;;;;;;;44.63;27.08;;;;;;;9.38;100.00;101456.03;3534362;40;20069;-61
2021/05/19 05:41:47;;;;;;;41.78;27.83;;;;;;;9.42;100.00;101460.22;3538684;40;20489;-61
2021/05/19 05:44:14;;;;;;;39.95;25.90;;;;;;;9.45;100.00;101459.13;3535921;40;20105;-62
2021/05/19 05:46:40;;;;;;;42.22;26.85;;;;;;;9.47;100.00;101463.41;3548173;40;20042;-61
2021/05/19 05:49:07;;;;;;;41.90;26.75;;;;;;;9.54;100.00;101460.25;3550200;40;20339;-62
2021/05/19 05:51:33;;;;;;;42.72;25.67;;;;;;;9.70;100.00;101460.84;3554319;40;20079;-62
2021/05/19 05:53:59;;;;;;;45.22;27.38;;;;;;;9.68;100.00;101462.78;3552506;40;20154;-62
2021/05/19 05:56:25;;;;;;;45.13;27.02;;;;;;;9.60;100.00;101462.50;3551638;40;20060;-62
2021/05/19 05:58:51;;;;;;;38.30;26.35;;;;;;;9.61;100.00;101466.91;3543796;40;20061;-62
2021/05/19 06:01:18;;;;;;;39.15;24.95;;;;;;;9.59;100.00;101471.53;3538318;40;20069;-61
2021/05/19 06:03:44;;;;;;;34.58;24.30;;;;;;;9.70;100.00;101471.59;3536530;40;20057;-62
2021/05/19 06:06:10;;;;;;;32.75;23.63;;;;;;;9.80;100.00;101461.88;3537373;40;20192;-61
2021/05/19 06:08:36;;;;;;;39.85;24.95;;;;;;;9.74;100.00;101465.00;3535913;40;20050;-61
2021/05/19 06:11:05;;;;;;;38.30;24.98;;;;;;;9.77;100.00;101462.06;3538401;40;20179;-62
2021/05/19 06:13:31;;;;;;;38.90;24.15;;;;;;;9.92;100.00;101461.88;3547594;40;20046;-61
2021/05/19 06:15:57;;;;;;;34.80;24.15;;;;;;;9.98;100.00;101464.09;3556782;40;20359;-61
2021/05/19 06:18:23;;;;;;;31.67;21.90;;;;;;;10.08;100.00;101465.09;3554882;40;20050;-66
2021/05/19 06:20:49;;;;;;;31.92;22.77;;;;;;;10.06;100.00;101467.06;3556267;40;21956;-63
2021/05/19 06:23:15;;;;;;;36.08;23.85;;;;;;;10.13;100.00;101465.63;3552700;40;20050;-62
2021/05/19 06:25:42;;;;;;;36.60;22.63;;;;;;;10.25;100.00;101473.75;3553529;40;20061;-62
2021/05/19 06:28:08;;;;;;;42.00;24.58;;;;;;;10.26;100.00;101467.34;3553562;40;20053;-61
2021/05/19 06:30:37;;;;;;;37.55;22.63;;;;;;;10.21;100.00;101467.72;3555656;40;20053;-62
2021/05/19 06:33:04;;;;;;;31.27;22.35;;;;;;;10.27;100.00;101469.09;3552473;40;20057;-65
2021/05/19 06:35:31;;;;;;;34.33;22.42;;;;;;;10.52;100.00;101479.66;3554179;40;20050;-63
2021/05/19 06:37:57;;;;;;;29.63;21.65;;;;;;;10.52;100.00;101468.03;3554547;40;20046;-62
2021/05/19 06:40:23;;;;;;;30.95;22.42;;;;;;;10.52;100.00;101476.97;3556299;40;20070;-62
2021/05/19 06:42:50;;;;;;;33.60;21.77;;;;;;;10.68;100.00;101475.78;3554235;40;20387;-62
2021/05/19 06:45:19;;;;;;;32.40;20.67;;;;;;;10.56;100.00;101476.75;3553553;40;20042;-65
2021/05/19 06:47:45;;;;;;;31.75;19.55;;;;;;;10.77;100.00;101477.72;3553499;40;20048;-65
2021/05/19 06:50:11;;;;;;;33.38;20.88;;;;;;;10.97;100.00;101469.91;3553718;40;20313;-61
2021/05/19 06:52:38;;;;;;;31.70;20.48;;;;;;;11.27;100.00;101479.16;3553430;40;20371;-62
2021/05/19 06:55:07;;;;;;;28.63;18.45;;;;;;;11.61;100.00;101474.53;3552309;40;20057;-62
2021/05/19 06:57:35;;;;;;;29.65;18.00;;;;;;;11.73;100.00;101472.66;3553555;40;20046;-62
2021/05/19 07:00:01;;;;;;;32.80;18.33;;;;;;;11.97;100.00;101471.59;3552606;40;20038;-65
2021/05/19 07:02:27;;;;;;;33.63;17.77;;;;;;;12.15;100.00;101478.13;3548824;40;20045;-62
2021/05/19 07:04:53;;;;;;;27.90;17.42;;;;;;;12.20;100.00;101473.19;3552904;40;20061;-62
2021/05/19 07:07:19;;;;;;;28.92;17.15;;;;;;;12.32;100.00;101478.53;3553502;40;20367;-62
2021/05/19 07:09:46;;;;;;;30.15;18.38;;;;;;;12.10;100.00;101472.25;3552818;40;20320;-62
2021/05/19 07:12:12;;;;;;;28.00;16.83;;;;;;;12.24;100.00;101477.31;3552255;40;20054;-61
2021/05/19 07:14:46;;;;;;;23.10;16.52;;;;;;;12.21;100.00;101474.91;3552339;40;20085;-67
2021/05/19 07:17:12;;;;;;;26.20;16.55;;;;;;;12.02;100.00;101475.63;3548350;40;20062;-63
2021/05/19 07:19:38;;;;;;;26.35;17.08;;;;;;;12.37;100.00;101468.19;3551578;40;20061;-62
2021/05/19 07:22:04;;;;;;;26.30;17.65;;;;;;;12.41;100.00;101473.19;3552145;40;20327;-63
2021/05/19 07:24:31;;;;;;;32.58;18.13;;;;;;;12.31;100.00;101461.47;3552782;40;20042;-62
2021/05/19 07:26:58;;;;;;;24.02;17.30;;;;;;;12.51;100.00;101470.53;3552655;40;20040;-65
2021/05/19 07:29:23;;;;;;;27.50;17.73;;;;;;;12.59;100.00;101470.72;3552103;40;20103;-65
2021/05/19 07:31:49;;;;;;;24.95;16.05;;;;;;;12.62;100.00;101469.59;3552326;40;20053;-62
2021/05/19 07:34:15;;;;;;;21.88;14.95;;;;;;;13.00;100.00;101475.28;3551320;40;20053;-62
2021/05/19 07:36:41;;;;;;;22.20;12.98;;;;;;;12.87;100.00;101481.81;3553017;40;20049;-62
2021/05/19 07:39:08;;;;;;;19.15;12.38;;;;;;;12.74;100.00;101478.47;3552312;40;20061;-62
2021/05/19 07:41:34;;;;;;;21.40;13.32;;;;;;;12.52;100.00;101472.25;3553167;40;20062;-63
2021/05/19 07:44:01;;;;;;;21.30;14.85;;;;;;;12.14;100.00;101479.09;3552157;40;20382;-65
2021/05/19 07:46:27;;;;;;;20.70;14.73;;;;;;;12.39;100.00;101477.00;3553963;40;20052;-61
2021/05/19 07:48:53;;;;;;;20.52;14.98;;;;;;;12.66;100.00;101476.44;3552651;40;20057;-62
2021/05/19 07:51:19;;;;;;;21.42;15.63;;;;;;;12.51;100.00;101485.88;3552952;40;20041;-62
2021/05/19 07:53:45;;;;;;;22.05;16.05;;;;;;;12.42;100.00;101476.72;3554477;40;20135;-62
2021/05/19 07:56:15;;;;;;;25.95;17.00;;;;;;;12.45;100.00;101481.88;3551411;40;20417;-61
2021/05/19 07:58:44;;;;;;;26.92;16.80;;;;;;;12.60;100.00;101485.94;3551696;40;20382;-65
2021/05/19 08:01:22;;;;;;;28.77;17.92;;;;;;;12.67;100.00;101485.41;3551505;40;20113;-62
2021/05/19 08:03:48;;;;;;;20.52;16.70;;;;;;;12.85;100.00;101488.31;3552530;40;20096;-61
2021/05/19 08:06:15;;;;;;;21.67;17.38;;;;;;;12.71;100.00;101487.69;3552338;40;20050;-62
2021/05/19 08:08:41;;;;;;;29.08;16.83;;;;;;;12.37;100.00;101487.94;3555370;40;20419;-67
2021/05/19 08:11:07;;;;;;;24.55;17.33;;;;;;;12.48;100.00;101488.84;3553521;40;20049;-64
2021/05/19 08:13:39;;;;;;;26.30;17.08;;;;;;;12.45;100.00;101492.66;3553413;40;20046;-63
2021/05/19 08:16:05;;;;;;;29.20;18.27;;;;;;;12.69;100.00;101496.91;3555430;40;20048;-62
2021/05/19 08:18:32;;;;;;;25.05;17.08;;;;;;;12.65;100.00;101496.34;3555566;40;20049;-62
2021/05/19 08:24:14;;;;;;;28.83;18.17;;;;;;;12.43;100.00;101483.84;3631284;22;20436;-62
2021/05/19 08:26:40;;;;;;;26.40;17.17;;;;;;;12.58;100.00;101487.91;3595899;39;20088;-65
2021/05/19 08:29:06;;;;;;;26.20;15.90;;;;;;;12.49;100.00;101486.00;3594890;39;20060;-66
2021/05/19 08:31:34;;;;;;;24.40;16.80;;;;;;;12.85;100.00;101486.47;3596050;39;20122;-63
2021/05/19 08:34:01;;;;;;;24.08;16.88;;;;;;;12.69;100.00;101489.69;3591076;39;20076;-62
2021/05/19 08:36:27;;;;;;;22.95;15.43;;;;;;;13.04;100.00;101493.78;3591231;39;20051;-63
2021/05/19 08:38:54;;;;;;;24.13;15.18;;;;;;;13.21;100.00;101484.19;3590442;39;20074;-63
2021/05/19 08:41:20;;;;;;;26.60;15.43;;;;;;;13.59;100.00;101488.00;3588675;39;20316;-65
2021/05/19 08:43:46;;;;;;;20.05;14.35;;;;;;;13.74;100.00;101479.47;3589480;39;20036;-65
2021/05/19 08:46:12;;;;;;;19.20;13.80;;;;;;;13.57;100.00;101479.16;3590354;39;20399;-63
2021/05/19 08:48:40;;;;;;;17.58;13.15;;;;;;;13.18;100.00;101484.47;3590120;39;20042;-62
2021/05/19 08:51:08;;;;;;;21.70;12.70;;;;;;;13.35;100.00;101477.56;3589787;39;20039;-63
2021/05/19 08:53:34;;;;;;;19.55;13.63;;;;;;;13.42;100.00;101477.88;3590853;39;20048;-62
2021/05/19 08:56:06;;;;;;;21.15;13.18;;;;;;;14.07;100.00;101480.03;3589986;39;20129;-67
2021/05/19 08:58:32;;;;;;;17.17;12.63;;;;;;;13.75;100.00;101475.75;3589528;39;20095;-63
2021/05/19 09:00:58;;;;;;;17.42;11.90;;;;;;;13.95;100.00;101477.47;3590249;39;20034;-63
2021/05/19 09:03:24;;;;;;;17.70;13.85;;;;;;;13.59;100.00;101469.06;3594348;39;20055;-63
2021/05/19 09:05:52;;;;;;;20.52;13.93;;;;;;;13.05;100.00;101478.47;3595386;39;20055;-63
2021/05/19 09:08:20;;;;;;;21.50;14.43;;;;;;;13.08;100.00;101483.59;3595676;39;20052;-68
2021/05/19 09:10:57;;;;;;;25.25;15.63;;;;;;;12.79;100.00;101482.47;3595903;39;20391;-67
2021/05/19 09:13:34;;;;;;;22.67;14.68;;;;;;;12.82;100.00;101484.03;3594944;39;20036;-63
2021/05/19 09:16:02;;;;;;;23.17;13.52;;;;;;;12.40;100.00;101484.13;3595490;39;20039;-65
2021/05/19 09:18:49;;;;;;;18.35;12.50;;;;;;;12.36;100.00;101486.22;3595397;39;20128;-68
2021/05/19 09:21:36;;;;;;;14.80;10.18;;;;;;;12.14;100.00;101487.19;3590425;39;20420;-65
2021/05/19 09:24:06;;;;;;;11.55;7.05;;;;;;;12.25;100.00;101491.69;3590721;39;20043;-64
2021/05/19 09:26:32;;;;;;;7.72;5.10;;;;;;;12.07;100.00;101499.50;3589939;39;20044;-67
2021/05/19 09:29:22;;;;;;;8.70;6.00;;;;;;;11.98;100.00;101490.34;3590254;39;20391;-63
2021/05/19 09:31:51;;;;;;;;;;;;;;;11.96;100.00;101492.31;3590101;39;20084;-64
2021/05/19 09:34:22;;;;;;;15.27;9.68;;;;;;;11.75;100.00;101500.34;3593923;39;19993;-67
2021/05/19 09:36:48;;;;;;;15.35;9.70;;;;;;;11.73;100.00;101494.22;3595767;39;20038;-63
2021/05/19 09:39:14;;;;;;;14.80;10.40;;;;;;;11.79;100.00;101495.56;3590382;39;20056;-65
2021/05/19 09:41:40;;;;;;;15.93;11.40;;;;;;;11.64;100.00;101493.16;3590671;39;20040;-62
2021/05/19 09:44:09;;;;;;;14.55;11.32;;;;;;;11.49;100.00;101495.28;3591034;39;20048;-65
2021/05/19 09:46:36;;;;;;;16.88;11.55;;;;;;;11.46;100.00;101500.91;3589682;39;20061;-65
2021/05/19 09:49:16;;;;;;;20.63;13.73;;;;;;;11.31;100.00;101496.81;3590539;39;20131;-68
2021/05/19 09:51:44;;;;;;;28.88;15.88;;;;;;;10.88;100.00;101501.13;3589216;39;20176;-63
2021/05/19 09:54:25;;;;;;;24.92;14.55;;;;;;;10.77;100.00;101493.88;3590773;39;20304;-65
2021/05/19 09:56:54;;;;;;;16.92;11.30;;;;;;;10.63;100.00;101500.38;3590748;39;20060;-68
2021/05/19 09:59:20;;;;;;;9.70;7.30;;;;;;;10.13;100.00;101489.00;3591156;39;20047;-63
2021/05/19 10:01:47;;;;;;;12.18;9.07;;;;;;;10.18;100.00;101482.25;3592723;39;20052;-62
2021/05/19 10:04:13;;;;;;;15.20;8.38;;;;;;;10.12;100.00;101479.19;3590936;39;20144;-63
2021/05/19 10:06:41;;;;;;;14.07;7.07;;;;;;;10.14;100.00;101469.16;3588348;39;20134;-61
2021/05/19 10:09:07;;;;;;;6.63;5.05;;;;;;;9.99;100.00;101476.59;3590054;39;20048;-65
2021/05/19 10:11:35;;;;;;;9.73;4.05;;;;;;;9.92;100.00;101481.59;3589834;39;20067;-69
2021/05/19 10:14:03;;;;;;;3.30;2.60;;;;;;;9.77;100.00;101480.88;3590208;39;20146;-64
2021/05/19 10:16:31;;;;;;;3.78;2.08;;;;;;;9.80;100.00;101493.25;3590750;39;20059;-63
2021/05/19 10:18:58;;;;;;;2.25;1.65;;;;;;;9.90;100.00;101498.81;3588689;39;20309;-64
2021/05/19 10:21:32;;;;;;;3.33;1.85;;;;;;;9.96;100.00;101509.09;3589577;39;20033;-61
2021/05/19 10:24:05;;;;;;;2.85;1.58;;;;;;;9.92;100.00;101513.84;3590775;39;20040;-68
2021/05/19 10:26:32;;;;;;;1.85;1.25;;;;;;;9.97;100.00;101513.50;3593381;39;20056;-64
2021/05/19 10:29:00;;;;;;;2.28;1.27;;;;;;;9.93;100.00;101520.06;3595000;39;20505;-62
2021/05/19 10:31:28;;;;;;;1.15;1.00;;;;;;;9.96;100.00;101528.75;3596469;39;20052;-63
2021/05/19 10:33:58;;;;;;;1.53;1.00;;;;;;;10.25;100.00;101536.47;3596864;39;20056;-68
2021/05/19 10:36:36;;;;;;;1.50;1.10;;;;;;;10.28;100.00;101544.28;3593805;39;20265;-65
2021/05/19 10:39:21;;;;;;;1.02;0.80;;;;;;;10.10;100.00;101534.91;3590336;39;20056;-65
2021/05/19 10:41:50;;;;;;;1.45;0.98;;;;;;;10.04;100.00;101547.03;3596374;39;20092;-67
2021/05/19 10:44:18;;;;;;;1.67;1.02;;;;;;;10.00;100.00;101545.53;3595569;39;20044;-65
2021/05/19 10:46:55;;;;;;;3.17;1.27;;;;;;;10.03;100.00;101558.75;3593194;39;20038;-63
2021/05/19 10:49:21;;;;;;;3.72;1.20;;;;;;;10.31;100.00;101570.13;3592323;39;20048;-63
2021/05/19 10:52:05;;;;;;;2.25;1.20;;;;;;;10.31;100.00;101575.50;3592367;39;20040;-62
2021/05/19 10:57:45;;;;;;;2.28;1.33;;;;;;;10.29;100.00;101580.13;3590375;39;20109;-66
2021/05/19 11:00:20;;;;;;;2.08;1.63;;;;;;;10.25;100.00;101581.34;3592560;39;20299;-63
2021/05/19 11:03:14;;;;;;;5.32;2.00;;;;;;;10.41;100.00;101581.03;3592380;39;20055;-61
2021/05/19 11:06:07;;;;;;;3.35;1.98;;;;;;;10.67;100.00;101587.13;3591307;39;20468;-66
2021/05/19 11:08:35;;;;;;;5.43;2.13;;;;;;;10.39;100.00;101580.31;3591912;39;20059;-63
2021/05/19 11:11:22;;;;;;;5.22;2.80;;;;;;;10.27;100.00;101582.06;3591858;39;20376;-64
2021/05/19 11:14:17;;;;;;;5.65;2.60;;;;;;;10.51;100.00;101585.63;3592988;39;20410;-63
2021/05/19 11:16:55;;;;;;;4.05;3.00;;;;;;;10.37;100.00;101580.44;3594609;39;20055;-65
2021/05/19 11:19:29;;;;;;;6.82;4.00;;;;;;;10.37;100.00;101583.13;3594621;39;20519;-65
2021/05/19 11:22:00;;;;;;;6.05;4.82;;;;;;;10.13;100.00;101581.28;3594209;39;20044;-62